Roza A — TCRB7 — position and weather

sailwx.info

Track history (hours):
 
Tides and Currents Weather Stations Pressure Air Temp Water Temp Dewpoint Dewpoint Depression Visibility Wind Speed Wind Dir Waves Ship Positions

Roza A

Last reported at 2017-Feb-23 15:04 UTC. Time now 2017-Feb-25 07:34 UTC.
Position N 37°55' E 024°37'.

; draft 5.8 m.

Type: Cargo ship. MMSI: 271001057.

Date/timePositionNaut miles runAvg speedWind from/ knotsBaromVisibWave heightAir tempDewpointWater temp
2017-Feb-23 15:04N 37°55' E 024°37'811.6
2017-Feb-23 14:23N 37°47' E 024°35'2411.7
2017-Feb-23 12:22N 37°27' E 024°19'46510.8
2017-Feb-21 17:30N 36°22' E 014°44'1111.4
2017-Feb-21 16:33N 36°26' E 014°31'1211.7
2017-Feb-21 15:34N 36°32' E 014°19'1211.7
2017-Feb-21 14:33N 36°38' E 014°06'1211.5
2017-Feb-21 13:33N 36°44' E 013°54'1211.7
2017-Feb-21 12:33N 36°50' E 013°41'1211.8
2017-Feb-21 11:32N 36°56' E 013°28'22111.6
2017-Feb-20 16:28N 38°55' E 009°32'1111.8
2017-Feb-20 15:33N 39°01' E 009°21'1111.3
2017-Feb-20 14:33N 39°06' E 009°08'7 6.7
2017-Feb-20 13:31N 39°13' E 009°05'0 0.0
2017-Feb-20 12:31N 39°13' E 009°05'0 0.0
2017-Feb-20 11:31N 39°13' E 009°05'0 0.0
2017-Feb-20 10:31N 39°13' E 009°05'0 0.0
2017-Feb-20 09:31N 39°13' E 009°05'0 0.0
2017-Feb-20 08:31N 39°13' E 009°05'0 0.0
2017-Feb-20 07:31N 39°13' E 009°05'0 0.0
2017-Feb-20 06:31N 39°13' E 009°05'0 0.0
2017-Feb-20 05:31N 39°13' E 009°05'0 0.0
2017-Feb-20 04:31N 39°13' E 009°05'0 0.0
2017-Feb-20 03:31N 39°13' E 009°05'0 0.0
2017-Feb-20 02:31N 39°13' E 009°05'0 0.0
2017-Feb-20 01:31N 39°13' E 009°05'0 0.0
2017-Feb-20 00:31N 39°13' E 009°05'0 0.0
2017-Feb-19 23:31N 39°13' E 009°05'0 0.0
2017-Feb-19 22:31N 39°13' E 009°05'0 0.0
2017-Feb-19 21:31N 39°13' E 009°05'0 0.0
2017-Feb-19 20:31N 39°13' E 009°05'2 1.9
2017-Feb-19 19:33N 39°11' E 009°06'2 1.9
2017-Feb-19 18:33N 39°09' E 009°06'8 8.3
2017-Feb-19 17:32N 39°01' E 009°07'1111.2
2017-Feb-19 16:33N 38°53' E 008°58'1211.3
2017-Feb-19 15:31N 38°48' E 008°44'  
2017-Feb-17 01:24N 36°00' W 005°13'910.1
2017-Feb-17 00:33N 35°58' W 005°23'6 1.1
2017-Feb-16 18:33N 35°54' W 005°29'0 0.0
2017-Feb-16 17:33N 35°54' W 005°29'0 0.0
2017-Feb-16 16:33N 35°54' W 005°29'0 0.0
2017-Feb-16 15:30N 35°54' W 005°29'0 0.0
2017-Feb-16 14:33N 35°54' W 005°29'0 0.0
2017-Feb-16 13:33N 35°54' W 005°29'0 0.0
2017-Feb-16 12:30N 35°54' W 005°29'0 0.0
2017-Feb-16 11:33N 35°54' W 005°29'0 0.0
2017-Feb-16 10:30N 35°54' W 005°29'0 0.0
2017-Feb-16 09:33N 35°54' W 005°29'0 0.0
2017-Feb-16 08:30N 35°54' W 005°29'3 1.7
2017-Feb-16 06:31N 35°54' W 005°33'6 6.4
2017-Feb-16 05:32N 35°54' W 005°41'10 9.5
2017-Feb-16 04:29N 35°52' W 005°53'6 0.1
2017-Feb-14 02:33N 35°51' W 006°01'1312.6
2017-Feb-14 01:33N 35°57' W 005°47'1414.3
2017-Feb-14 00:34N 35°59' W 005°29'1313.4
2017-Feb-13 23:34N 36°02' W 005°13'1515.1
2017-Feb-13 22:34N 36°05' W 004°55'  
Track history (hours):
 
Tides and Currents Weather Stations Pressure Air Temp Water Temp Dewpoint Dewpoint Depression Visibility Wind Speed Wind Dir Waves Ship Positions

Roza A

Last reported at 2017-Feb-23 15:04 UTC. Time now 2017-Feb-25 07:34 UTC.
Position N 37°55' E 024°37'.

; draft 5.8 m.

Type: Cargo ship. MMSI: 271001057.

Date/timePositionNaut miles runAvg speedWind from/ knotsBaromVisibWave heightAir tempDewpointWater temp
2017-Feb-23 15:04N 37°55' E 024°37'811.6
2017-Feb-23 14:23N 37°47' E 024°35'2411.7
2017-Feb-23 12:22N 37°27' E 024°19'46510.8
2017-Feb-21 17:30N 36°22' E 014°44'1111.4
2017-Feb-21 16:33N 36°26' E 014°31'1211.7
2017-Feb-21 15:34N 36°32' E 014°19'1211.7
2017-Feb-21 14:33N 36°38' E 014°06'1211.5
2017-Feb-21 13:33N 36°44' E 013°54'1211.7
2017-Feb-21 12:33N 36°50' E 013°41'1211.8
2017-Feb-21 11:32N 36°56' E 013°28'22111.6
2017-Feb-20 16:28N 38°55' E 009°32'1111.8
2017-Feb-20 15:33N 39°01' E 009°21'1111.3
2017-Feb-20 14:33N 39°06' E 009°08'7 6.7
2017-Feb-20 13:31N 39°13' E 009°05'0 0.0
2017-Feb-20 12:31N 39°13' E 009°05'0 0.0
2017-Feb-20 11:31N 39°13' E 009°05'0 0.0
2017-Feb-20 10:31N 39°13' E 009°05'0 0.0
2017-Feb-20 09:31N 39°13' E 009°05'0 0.0
2017-Feb-20 08:31N 39°13' E 009°05'0 0.0
2017-Feb-20 07:31N 39°13' E 009°05'0 0.0
2017-Feb-20 06:31N 39°13' E 009°05'0 0.0
2017-Feb-20 05:31N 39°13' E 009°05'0 0.0
2017-Feb-20 04:31N 39°13' E 009°05'0 0.0
2017-Feb-20 03:31N 39°13' E 009°05'0 0.0
2017-Feb-20 02:31N 39°13' E 009°05'0 0.0
2017-Feb-20 01:31N 39°13' E 009°05'0 0.0
2017-Feb-20 00:31N 39°13' E 009°05'0 0.0
2017-Feb-19 23:31N 39°13' E 009°05'0 0.0
2017-Feb-19 22:31N 39°13' E 009°05'0 0.0
2017-Feb-19 21:31N 39°13' E 009°05'0 0.0
2017-Feb-19 20:31N 39°13' E 009°05'2 1.9
2017-Feb-19 19:33N 39°11' E 009°06'2 1.9
2017-Feb-19 18:33N 39°09' E 009°06'8 8.3
2017-Feb-19 17:32N 39°01' E 009°07'1111.2
2017-Feb-19 16:33N 38°53' E 008°58'1211.3
2017-Feb-19 15:31N 38°48' E 008°44'  
2017-Feb-17 01:24N 36°00' W 005°13'910.1
2017-Feb-17 00:33N 35°58' W 005°23'6 1.1
2017-Feb-16 18:33N 35°54' W 005°29'0 0.0
2017-Feb-16 17:33N 35°54' W 005°29'0 0.0
2017-Feb-16 16:33N 35°54' W 005°29'0 0.0
2017-Feb-16 15:30N 35°54' W 005°29'0 0.0
2017-Feb-16 14:33N 35°54' W 005°29'0 0.0
2017-Feb-16 13:33N 35°54' W 005°29'0 0.0
2017-Feb-16 12:30N 35°54' W 005°29'0 0.0
2017-Feb-16 11:33N 35°54' W 005°29'0 0.0
2017-Feb-16 10:30N 35°54' W 005°29'0 0.0
2017-Feb-16 09:33N 35°54' W 005°29'0 0.0
2017-Feb-16 08:30N 35°54' W 005°29'3 1.7
2017-Feb-16 06:31N 35°54' W 005°33'6 6.4
2017-Feb-16 05:32N 35°54' W 005°41'10 9.5
2017-Feb-16 04:29N 35°52' W 005°53'6 0.1
2017-Feb-14 02:33N 35°51' W 006°01'1312.6
2017-Feb-14 01:33N 35°57' W 005°47'1414.3
2017-Feb-14 00:34N 35°59' W 005°29'1313.4
2017-Feb-13 23:34N 36°02' W 005°13'1515.1
2017-Feb-13 22:34N 36°05' W 004°55'  

Dump ship's entire track history